Terminal Aerodrome Forecast
Issued by NWS

Current Version | Previous Version | Graphics & Text | Print | Product List | Glossary On
Versions: 1 2 3 4 5 6 7 8 9 10 11 12 13 14 15 16 17 18 19 20 21 22
699
FTUS41 KILN 220535
TAFLUK
TAF
KLUK 220535Z 2206/2306 00000KT P6SM FEW150 BKN250
     FM220700 00000KT 4SM BR SCT250
      TEMPO 2208/2212 1SM BR
     FM221400 23005KT P6SM VCTS SCT040CB BKN120
     FM221800 25008KT P6SM SCT040 BKN200
     FM230000 13003KT P6SM SCT250=

USA.gov is the U.S. government's official web portal to all federal, state and local government web resources and services.